createdAt,value
2018-02-11T00:01:24.757Z,21.53
2018-02-11T00:03:52.326Z,10.07
2018-02-11T00:06:19.880Z,12.90
2018-02-11T00:08:47.738Z,16.23
2018-02-11T00:11:15.305Z,13.20
2018-02-11T00:13:42.873Z,11.87
2018-02-11T00:16:11.230Z,12.97
2018-02-11T00:18:38.798Z,9.27
2018-02-11T00:21:06.372Z,14.93
2018-02-11T00:23:34.595Z,16.20
2018-02-11T00:26:02.163Z,11.43
2018-02-11T00:28:29.716Z,11.73
2018-02-11T00:30:57.599Z,12.60
2018-02-11T00:33:25.162Z,10.33
2018-02-11T00:35:52.715Z,10.97
2018-02-11T00:38:20.600Z,13.90
2018-02-11T00:40:48.159Z,10.60
2018-02-11T00:43:15.728Z,16.70
2018-02-11T00:45:44.835Z,12.30
2018-02-11T00:48:13.179Z,18.83
2018-02-11T00:50:41.018Z,12.40
2018-02-11T00:53:08.591Z,13.23
2018-02-11T00:55:36.157Z,12.47
2018-02-11T00:58:03.762Z,19.73
2018-02-11T01:00:32.115Z,12.37
2018-02-11T01:03:00.473Z,11.20
2018-02-11T01:05:28.068Z,13.23
2018-02-11T01:07:55.619Z,14.27
2018-02-11T01:10:23.582Z,19.73
2018-02-11T01:12:51.940Z,14.17
2018-02-11T01:15:19.491Z,10.60
2018-02-11T01:17:47.092Z,12.60
2018-02-11T01:20:15.451Z,8.00
2018-02-11T01:22:43.026Z,15.00
2018-02-11T01:25:11.527Z,14.97
2018-02-11T01:27:39.875Z,17.77
2018-02-11T01:30:07.433Z,17.67
2018-02-11T01:32:35.364Z,19.47
2018-02-11T01:35:02.945Z,23.30
2018-02-11T01:37:30.502Z,23.83
2018-02-11T01:39:58.110Z,17.57
2018-02-11T01:42:26.425Z,25.93
2018-02-11T01:44:54.031Z,29.63
2018-02-11T01:47:22.346Z,18.60
2018-02-11T01:50:01.726Z,26.93
2018-02-11T01:52:30.173Z,24.60
2018-02-11T01:54:57.800Z,27.00
2018-02-11T01:57:25.816Z,28.80
2018-02-11T01:59:53.418Z,25.20
2018-02-11T02:02:21.743Z,24.17
2018-02-11T02:04:49.621Z,27.90
2018-02-11T02:07:17.204Z,32.87
2018-02-11T02:09:44.779Z,27.03
2018-02-11T02:12:12.705Z,32.00
2018-02-11T02:14:40.293Z,37.27
2018-02-11T02:17:08.627Z,34.83
2018-02-11T02:19:36.478Z,38.57
2018-02-11T02:22:04.025Z,32.20
2018-02-11T02:24:31.596Z,36.20
2018-02-11T02:26:59.188Z,35.60
2018-02-11T02:29:26.751Z,38.60
2018-02-11T02:31:54.302Z,43.30
2018-02-11T02:34:22.167Z,33.03
2018-02-11T02:36:49.742Z,46.60
2018-02-11T02:39:17.300Z,39.00
2018-02-11T02:41:46.665Z,33.23
2018-02-11T02:44:14.238Z,38.80
2018-02-11T02:46:41.806Z,38.93
2018-02-11T02:49:09.726Z,37.77
2018-02-11T02:51:37.260Z,36.83
2018-02-11T02:54:05.589Z,27.30
2018-02-11T02:56:33.563Z,39.90
2018-02-11T02:59:01.126Z,43.83
2018-02-11T03:01:28.703Z,39.87
2018-02-11T03:03:57.790Z,46.33
2018-02-11T03:06:25.495Z,37.87
2018-02-11T03:08:53.069Z,44.50
2018-02-11T03:11:20.949Z,46.27
2018-02-11T03:13:48.519Z,46.43
2018-02-11T03:16:16.108Z,37.73
2018-02-11T03:18:43.713Z,32.53
2018-02-11T03:21:11.313Z,36.47
2018-02-11T03:23:38.886Z,30.67
2018-02-11T03:26:06.454Z,27.03
2018-02-11T03:28:34.803Z,33.23
2018-02-11T03:31:02.368Z,32.50
2018-02-11T03:33:29.920Z,32.90
2018-02-11T03:35:57.874Z,33.77
2018-02-11T03:38:25.806Z,35.20
2018-02-11T03:40:53.385Z,46.90
2018-02-11T03:43:21.221Z,41.37
2018-02-11T03:45:49.544Z,40.57
2018-02-11T03:48:17.097Z,47.27
2018-02-11T03:50:44.944Z,39.50
2018-02-11T03:53:12.550Z,44.60
2018-02-11T03:55:40.098Z,42.20
2018-02-11T03:58:07.682Z,36.77
2018-02-11T04:00:36.055Z,39.93
2018-02-11T04:03:03.621Z,34.20
2018-02-11T04:05:32.262Z,36.50
2018-02-11T04:07:59.835Z,45.87
2018-02-11T04:10:27.459Z,33.20
2018-02-11T04:12:55.045Z,31.43
2018-02-11T04:15:22.600Z,27.47
2018-02-11T04:17:50.172Z,27.27
2018-02-11T04:20:17.784Z,30.73
2018-02-11T04:22:45.351Z,25.33
2018-02-11T04:25:12.928Z,23.30
2018-02-11T04:27:40.807Z,29.83
2018-02-11T04:30:08.359Z,26.47
2018-02-11T04:32:35.936Z,27.47
2018-02-11T04:35:03.899Z,23.37
2018-02-11T04:37:31.458Z,24.63
2018-02-11T04:39:59.020Z,19.50
2018-02-11T04:42:26.971Z,30.00
2018-02-11T04:44:54.535Z,25.50
2018-02-11T04:47:22.117Z,24.73
2018-02-11T04:49:49.705Z,25.63
2018-02-11T04:52:17.256Z,28.77
2018-02-11T04:54:45.623Z,27.53
2018-02-11T04:57:14.163Z,22.90
2018-02-11T04:59:41.792Z,22.60
2018-02-11T05:02:09.362Z,24.70
2018-02-11T05:04:36.924Z,25.97
2018-02-11T05:07:04.525Z,27.83
2018-02-11T05:09:32.146Z,22.93
2018-02-11T05:11:59.738Z,20.10
2018-02-11T05:14:27.358Z,19.10
2018-02-11T05:16:54.910Z,19.57
2018-02-11T05:19:22.778Z,21.87
2018-02-11T05:21:50.349Z,26.47
2018-02-11T05:24:17.909Z,25.03
2018-02-11T05:26:46.206Z,24.70
2018-02-11T05:29:13.757Z,23.20
2018-02-11T05:31:41.307Z,22.03
2018-02-11T05:34:09.178Z,24.17
2018-02-11T05:36:36.740Z,25.40
2018-02-11T05:39:04.296Z,24.07
2018-02-11T05:41:32.162Z,28.63
2018-02-11T05:43:59.720Z,33.70
2018-02-11T05:46:27.358Z,32.20
2018-02-11T05:48:54.945Z,34.97
2018-02-11T05:51:22.517Z,30.67
2018-02-11T05:53:50.080Z,26.30
2018-02-11T05:56:17.637Z,30.30
2018-02-11T05:58:45.476Z,30.80
2018-02-11T06:01:13.050Z,37.00
2018-02-11T06:03:40.602Z,35.43
2018-02-11T06:06:08.492Z,30.70
2018-02-11T06:08:37.750Z,32.90
2018-02-11T06:11:05.320Z,35.90
2018-02-11T06:13:32.923Z,34.00
2018-02-11T06:16:01.250Z,37.37
2018-02-11T06:18:28.811Z,41.03
2018-02-11T06:20:56.682Z,38.53
2018-02-11T06:23:24.247Z,36.50
2018-02-11T06:25:51.815Z,32.90
2018-02-11T06:28:19.430Z,35.13
2018-02-11T06:30:46.991Z,38.57
2018-02-11T06:33:14.578Z,40.70
2018-02-11T06:35:42.157Z,38.60
2018-02-11T06:38:09.728Z,41.70
2018-02-11T06:40:37.574Z,45.23
2018-02-11T06:43:06.646Z,42.40
2018-02-11T06:45:34.219Z,43.70
2018-02-11T06:48:01.811Z,44.20
2018-02-11T06:50:30.175Z,39.33
2018-02-11T06:52:57.742Z,44.83
2018-02-11T06:55:26.126Z,43.27
2018-02-11T06:57:54.453Z,46.47
2018-02-11T07:00:22.351Z,44.40
2018-02-11T07:02:50.975Z,46.60
2018-02-11T07:05:18.529Z,45.73
2018-02-11T07:07:46.088Z,39.70
2018-02-11T07:10:14.017Z,34.73
2018-02-11T07:12:41.564Z,30.43
2018-02-11T07:15:09.125Z,29.03
2018-02-11T07:17:36.723Z,28.53
2018-02-11T07:20:05.219Z,26.13
2018-02-11T07:22:32.806Z,26.43
2018-02-11T07:25:00.395Z,27.30
2018-02-11T07:27:27.950Z,25.80
2018-02-11T07:29:55.502Z,21.40
2018-02-11T07:32:23.463Z,18.67
2018-02-11T07:34:51.022Z,16.20
2018-02-11T07:37:18.582Z,17.33
2018-02-11T07:39:46.451Z,15.83
2018-02-11T07:42:14.013Z,15.10
2018-02-11T07:44:41.581Z,16.00
2018-02-11T07:47:09.170Z,13.00
2018-02-11T07:49:37.593Z,13.87
2018-02-11T07:52:05.172Z,13.33
2018-02-11T07:54:33.884Z,11.40
2018-02-11T07:57:07.466Z,11.53
2018-02-11T07:59:35.050Z,10.20
2018-02-11T08:02:03.477Z,13.80
2018-02-11T08:04:31.413Z,11.27
2018-02-11T08:06:59.532Z,10.20
2018-02-11T08:09:27.157Z,9.87
2018-02-11T08:11:54.718Z,9.70
2018-02-11T08:14:22.266Z,11.33
2018-02-11T08:16:49.855Z,10.23
2018-02-11T08:19:17.455Z,9.77
2018-02-11T08:21:45.765Z,9.70
2018-02-11T08:24:13.349Z,10.97
2018-02-11T08:26:40.925Z,9.10
2018-02-11T08:29:08.833Z,9.60
2018-02-11T08:31:36.441Z,9.33
2018-02-11T08:34:04.008Z,9.10
2018-02-11T08:36:32.343Z,9.33
2018-02-11T08:38:59.957Z,8.70
2018-02-11T08:41:28.276Z,9.33
2018-02-11T08:43:56.133Z,10.50
2018-02-11T08:46:23.707Z,10.27
2018-02-11T08:48:51.261Z,11.03
2018-02-11T08:51:18.876Z,10.90
2018-02-11T08:53:47.526Z,9.87
2018-02-11T08:56:15.099Z,11.50
2018-02-11T08:58:42.665Z,10.07
2018-02-11T09:01:10.259Z,14.30
2018-02-11T09:03:38.673Z,11.20
2018-02-11T09:06:06.213Z,12.70
2018-02-11T09:08:33.778Z,15.40
2018-02-11T09:11:01.694Z,12.67
2018-02-11T09:13:29.407Z,10.77
2018-02-11T09:15:56.980Z,12.50
2018-02-11T09:18:24.568Z,18.10
2018-02-11T09:20:52.224Z,17.00
2018-02-11T09:23:19.846Z,11.47
2018-02-11T09:25:47.406Z,17.83
2018-02-11T09:28:15.192Z,13.80
2018-02-11T09:30:42.750Z,12.10
2018-02-11T09:33:10.773Z,16.43
2018-02-11T09:35:39.416Z,15.30
2018-02-11T09:38:06.974Z,18.03
2018-02-11T09:40:34.536Z,15.77
2018-02-11T09:43:02.399Z,15.80
2018-02-11T09:45:29.996Z,12.57
2018-02-11T09:47:58.329Z,17.83
2018-02-11T09:50:26.174Z,17.97
2018-02-11T09:52:53.732Z,19.87
2018-02-11T09:55:21.285Z,21.97
2018-02-11T09:57:49.255Z,15.47
2018-02-11T10:00:16.805Z,11.70
2018-02-11T10:02:44.395Z,12.10
2018-02-11T10:05:12.005Z,14.10
2018-02-11T10:07:40.366Z,13.20
2018-02-11T10:10:08.749Z,18.70
2018-02-11T10:12:37.092Z,15.80
2018-02-11T10:15:04.665Z,15.63
2018-02-11T10:17:32.269Z,14.83
2018-02-11T10:19:59.837Z,10.07
2018-02-11T10:22:27.494Z,10.23
2018-02-11T10:24:55.403Z,11.83
2018-02-11T10:27:22.975Z,16.00
2018-02-11T10:29:51.319Z,14.93
2018-02-11T10:32:19.187Z,21.67
2018-02-11T10:34:46.743Z,15.57
2018-02-11T10:37:14.305Z,11.20
2018-02-11T10:39:42.191Z,18.80
2018-02-11T10:42:09.808Z,8.80
2018-02-11T10:44:37.709Z,11.93
2018-02-11T10:47:05.310Z,20.10
2018-02-11T10:49:33.643Z,10.53
2018-02-11T10:52:01.395Z,9.20
2018-02-11T10:54:30.136Z,14.40
2018-02-11T10:56:58.460Z,14.93
2018-02-11T10:59:26.013Z,8.17
2018-02-11T11:01:53.647Z,14.87
2018-02-11T11:04:21.211Z,11.53
2018-02-11T11:06:48.820Z,16.93
2018-02-11T11:09:17.916Z,11.33
2018-02-11T11:11:46.262Z,18.97
2018-02-11T11:14:14.186Z,14.27
2018-02-11T11:16:42.487Z,11.20
2018-02-11T11:19:10.059Z,16.63
2018-02-11T11:21:37.681Z,10.70
2018-02-11T11:24:06.015Z,16.90
2018-02-11T11:26:33.614Z,9.23
2018-02-11T11:29:01.225Z,13.17
2018-02-11T11:31:28.824Z,13.40
2018-02-11T11:33:57.162Z,7.27
2018-02-11T11:36:24.724Z,8.00
2018-02-11T11:38:52.695Z,3.63
2018-02-11T11:41:20.245Z,5.43
2018-02-11T11:43:47.828Z,16.70
2018-02-11T11:46:16.204Z,7.43
2018-02-11T11:48:45.271Z,6.43
2018-02-11T11:51:13.107Z,10.90
2018-02-11T11:53:40.662Z,15.23
2018-02-11T11:56:08.239Z,10.83
2018-02-11T11:58:37.502Z,14.07
2018-02-11T12:01:05.870Z,7.37
2018-02-11T12:03:35.283Z,10.63
2018-02-11T12:06:03.622Z,4.07
2018-02-11T12:08:31.318Z,11.80
2018-02-11T12:10:59.670Z,4.70
2018-02-11T12:13:27.686Z,10.10
2018-02-11T12:15:55.605Z,2.63
2018-02-11T12:18:23.235Z,11.30
2018-02-11T12:20:50.837Z,4.57
2018-02-11T12:23:20.208Z,11.67
2018-02-11T12:25:47.789Z,11.10
2018-02-11T12:28:15.333Z,7.90
2018-02-11T12:30:42.914Z,9.37
2018-02-11T12:33:10.479Z,7.13
2018-02-11T12:35:39.129Z,5.00
2018-02-11T12:38:06.695Z,7.07
2018-02-11T12:40:34.319Z,4.53
2018-02-11T12:43:01.959Z,7.37
2018-02-11T12:45:30.265Z,5.57
2018-02-11T12:47:57.852Z,10.87
2018-02-11T12:50:25.402Z,9.10
2018-02-11T12:52:52.979Z,13.17
2018-02-11T12:55:20.581Z,7.57
2018-02-11T12:57:48.139Z,6.10
2018-02-11T13:00:15.918Z,8.00
2018-02-11T13:02:43.440Z,11.40
2018-02-11T13:05:11.767Z,4.60
2018-02-11T13:07:39.344Z,3.67
2018-02-11T13:10:06.903Z,8.20
2018-02-11T13:12:34.920Z,11.03
2018-02-11T13:15:03.235Z,3.23
2018-02-11T13:17:30.796Z,6.70
2018-02-11T13:19:58.390Z,17.53
2018-02-11T13:22:25.933Z,8.70
2018-02-11T13:24:54.047Z,7.17
2018-02-11T13:27:21.610Z,4.33
2018-02-11T13:29:49.285Z,11.30
2018-02-11T13:32:17.593Z,8.57
2018-02-11T13:34:45.156Z,9.10
2018-02-11T13:37:12.703Z,5.27
2018-02-11T13:39:40.515Z,4.97
2018-02-11T13:42:09.081Z,9.27
2018-02-11T13:44:36.936Z,7.10
2018-02-11T13:47:04.945Z,11.60
2018-02-11T13:49:32.523Z,8.67
2018-02-11T13:52:00.103Z,3.63
2018-02-11T13:54:27.658Z,6.37
2018-02-11T13:56:55.602Z,8.97
2018-02-11T13:59:23.155Z,9.23
2018-02-11T14:01:50.712Z,7.33
2018-02-11T14:04:18.304Z,7.00
2018-02-11T14:06:45.844Z,7.77
2018-02-11T14:09:13.531Z,16.67
2018-02-11T14:11:41.078Z,7.27
2018-02-11T14:14:08.656Z,6.57
2018-02-11T14:16:36.613Z,6.23
2018-02-11T14:19:04.183Z,13.10
2018-02-11T14:21:31.807Z,6.23
2018-02-11T14:23:59.381Z,12.60
2018-02-11T14:26:26.932Z,11.63
2018-02-11T14:28:54.527Z,14.27
2018-02-11T14:31:22.862Z,10.73
2018-02-11T14:33:50.413Z,8.17
2018-02-11T14:36:18.075Z,5.60
2018-02-11T14:38:45.727Z,5.07
2018-02-11T14:41:13.628Z,7.37
2018-02-11T14:43:41.200Z,11.30
2018-02-11T14:46:08.761Z,13.93
2018-02-11T14:48:36.357Z,10.27
2018-02-11T14:51:04.914Z,9.63
2018-02-11T14:53:33.582Z,9.60
2018-02-11T14:56:01.168Z,9.67
2018-02-11T14:58:29.493Z,5.83
2018-02-11T15:00:57.074Z,12.90
2018-02-11T15:03:24.639Z,8.60
2018-02-11T15:05:52.228Z,8.73
2018-02-11T15:08:20.560Z,11.90
2018-02-11T15:10:48.194Z,8.67
2018-02-11T15:13:15.791Z,5.80
2018-02-11T15:15:43.363Z,15.73
2018-02-11T15:18:12.035Z,9.83
2018-02-11T15:20:39.607Z,12.80
2018-02-11T15:23:07.952Z,13.00
2018-02-11T15:25:35.529Z,9.40
2018-02-11T15:28:03.130Z,4.10
2018-02-11T15:30:31.767Z,7.20
2018-02-11T15:32:59.322Z,7.20
2018-02-11T15:35:26.924Z,15.60
2018-02-11T15:37:54.550Z,10.40
2018-02-11T15:40:22.310Z,8.57
2018-02-11T15:42:49.878Z,9.90
2018-02-11T15:45:17.514Z,10.33
2018-02-11T15:47:45.093Z,3.03
2018-02-11T15:50:14.701Z,11.00
2018-02-11T15:52:42.294Z,15.23
2018-02-11T15:55:10.630Z,9.03
2018-02-11T15:57:38.242Z,12.27
2018-02-11T16:00:05.806Z,8.40
2018-02-11T16:02:33.360Z,17.27
2018-02-11T16:05:01.265Z,5.40
2018-02-11T16:07:28.892Z,10.20
2018-02-11T16:09:56.465Z,7.80
2018-02-11T16:12:24.363Z,10.80
2018-02-11T16:14:51.938Z,9.00
2018-02-11T16:17:20.253Z,6.87
2018-02-11T16:19:47.844Z,5.27
2018-02-11T16:22:15.409Z,15.90
2018-02-11T16:24:43.054Z,8.63
2018-02-11T16:27:10.578Z,7.33
2018-02-11T16:29:38.474Z,5.57
2018-02-11T16:32:06.020Z,13.20
2018-02-11T16:34:33.572Z,7.40
2018-02-11T16:37:01.482Z,19.07
2018-02-11T16:39:29.048Z,5.93
2018-02-11T16:41:56.727Z,11.03
2018-02-11T16:44:25.345Z,11.93
2018-02-11T16:46:52.907Z,14.87
2018-02-11T16:49:20.462Z,10.50
2018-02-11T16:51:48.051Z,10.20
2018-02-11T16:54:15.914Z,5.47
2018-02-11T16:56:43.483Z,7.10
2018-02-11T16:59:11.040Z,9.80
2018-02-11T17:01:38.678Z,12.13
2018-02-11T17:04:06.288Z,13.07
2018-02-11T17:06:34.911Z,6.63
2018-02-11T17:09:02.579Z,10.70
2018-02-11T17:11:30.942Z,6.87
2018-02-11T17:13:58.512Z,9.67
2018-02-11T17:16:26.408Z,6.70
2018-02-11T17:18:54.098Z,7.83
2018-02-11T17:21:21.663Z,9.57
2018-02-11T17:23:50.023Z,6.43
2018-02-11T17:26:18.012Z,9.60
2018-02-11T17:28:46.342Z,13.03
2018-02-11T17:31:13.905Z,7.53
2018-02-11T17:33:41.771Z,10.80
2018-02-11T17:36:09.326Z,7.93
2018-02-11T17:38:37.687Z,4.50
2018-02-11T17:41:05.288Z,11.13
2018-02-11T17:43:32.849Z,10.20
2018-02-11T17:46:01.936Z,10.30
2018-02-11T17:48:29.785Z,13.23
2018-02-11T17:50:57.367Z,11.87
2018-02-11T17:53:24.942Z,8.83
2018-02-11T17:55:53.298Z,13.07
2018-02-11T17:58:21.256Z,11.20
2018-02-11T18:00:48.805Z,8.57
2018-02-11T18:03:16.366Z,12.30
2018-02-11T18:05:44.208Z,10.07
2018-02-11T18:08:12.697Z,11.57
2018-02-11T18:10:40.252Z,9.20
2018-02-11T18:13:07.841Z,9.10
2018-02-11T18:15:35.441Z,6.97
2018-02-11T18:18:03.098Z,11.90
2018-02-11T18:20:31.455Z,9.40
2018-02-11T18:22:59.071Z,12.63
2018-02-11T18:25:26.635Z,16.37
2018-02-11T18:27:54.310Z,14.50
2018-02-11T18:30:22.348Z,10.80
2018-02-11T18:32:49.919Z,6.30
2018-02-11T18:35:17.485Z,10.23
2018-02-11T18:37:45.351Z,8.20
2018-02-11T18:40:12.988Z,10.23
2018-02-11T18:42:40.553Z,10.50
2018-02-11T18:45:08.146Z,10.13
2018-02-11T18:47:35.748Z,9.27
2018-02-11T18:50:04.016Z,8.63
2018-02-11T18:52:31.595Z,5.03
2018-02-11T18:54:59.206Z,10.63
2018-02-11T18:57:26.927Z,12.37
2018-02-11T18:59:54.558Z,12.33
2018-02-11T19:02:22.893Z,11.33
2018-02-11T19:04:50.754Z,11.03
2018-02-11T19:07:18.334Z,11.70
2018-02-11T19:09:47.440Z,10.97
2018-02-11T19:12:16.067Z,9.30
2018-02-11T19:14:43.631Z,9.63
2018-02-11T19:17:11.637Z,11.03
2018-02-11T19:19:39.233Z,12.13
2018-02-11T19:22:06.860Z,16.23
2018-02-11T19:24:34.430Z,16.33
2018-02-11T19:27:02.777Z,11.20
2018-02-11T19:29:30.648Z,15.63
2018-02-11T19:31:58.203Z,14.47
2018-02-11T19:34:25.795Z,11.97
2018-02-11T19:36:54.168Z,12.63
2018-02-11T19:39:22.591Z,14.80
2018-02-11T19:41:50.168Z,10.77
2018-02-11T19:44:17.734Z,20.23
2018-02-11T19:46:45.463Z,19.97
2018-02-11T19:49:13.025Z,9.70
2018-02-11T19:51:40.581Z,10.10
2018-02-11T19:54:08.473Z,12.87
2018-02-11T19:56:36.039Z,9.20
2018-02-11T19:59:04.703Z,11.97
2018-02-11T20:01:33.402Z,8.87
2018-02-11T20:04:00.967Z,16.27
2018-02-11T20:06:29.406Z,10.53
2018-02-11T20:08:57.060Z,11.57
2018-02-11T20:11:26.631Z,12.87
2018-02-11T20:13:54.218Z,16.37
2018-02-11T20:16:22.858Z,11.17
2018-02-11T20:18:50.432Z,11.30
2018-02-11T20:21:18.015Z,9.70
2018-02-11T20:23:47.124Z,8.07
2018-02-11T20:26:14.697Z,11.47
2018-02-11T20:28:42.250Z,12.63
2018-02-11T20:31:10.149Z,12.73
2018-02-11T20:33:37.699Z,11.00
2018-02-11T20:36:05.253Z,9.97
2018-02-11T20:38:33.771Z,9.50
2018-02-11T20:41:01.338Z,10.10
2018-02-11T20:43:29.269Z,12.63
2018-02-11T20:45:57.850Z,10.07
2018-02-11T20:48:25.457Z,8.73
2018-02-11T20:50:53.863Z,9.53
2018-02-11T20:53:21.463Z,12.20
2018-02-11T20:55:49.066Z,12.77
2018-02-11T20:58:17.416Z,8.87
2018-02-11T21:00:44.976Z,10.20
2018-02-11T21:03:13.726Z,11.70
2018-02-11T21:05:41.320Z,6.57
2018-02-11T21:08:09.657Z,14.73
2018-02-11T21:10:37.545Z,9.13
2018-02-11T21:13:05.127Z,10.30
2018-02-11T21:15:32.698Z,11.33
2018-02-11T21:18:01.326Z,10.10
2018-02-11T21:20:28.886Z,8.70
2018-02-11T21:22:56.445Z,11.97
2018-02-11T21:25:24.324Z,8.20
2018-02-11T21:27:51.895Z,7.53
2018-02-11T21:30:20.213Z,11.23
2018-02-11T21:32:48.127Z,9.17
2018-02-11T21:35:15.778Z,8.20
2018-02-11T21:37:43.344Z,7.33
2018-02-11T21:40:11.207Z,5.60
2018-02-11T21:42:38.779Z,9.60
2018-02-11T21:45:06.343Z,7.90
2018-02-11T21:47:34.094Z,7.10
2018-02-11T21:50:01.689Z,4.83
2018-02-11T21:52:29.986Z,7.20
2018-02-11T21:54:58.351Z,5.63
2018-02-11T21:57:26.676Z,8.00
2018-02-11T21:59:54.960Z,5.37
2018-02-11T22:02:22.580Z,6.10
2018-02-11T22:04:50.185Z,8.93
2018-02-11T22:07:17.746Z,7.80
2018-02-11T22:09:45.612Z,5.30
2018-02-11T22:12:13.160Z,6.83
2018-02-11T22:14:40.713Z,5.50
2018-02-11T22:17:08.575Z,7.50
2018-02-11T22:19:36.136Z,7.10
2018-02-11T22:22:03.707Z,6.63
2018-02-11T22:24:31.557Z,8.43
2018-02-11T22:26:59.101Z,9.30
2018-02-11T22:29:27.577Z,10.37
2018-02-11T22:31:55.153Z,12.63
2018-02-11T22:34:22.922Z,12.80
2018-02-11T22:36:51.086Z,14.10
2018-02-11T22:39:18.969Z,12.77
2018-02-11T22:41:46.537Z,14.70
2018-02-11T22:44:14.118Z,24.77
2018-02-11T22:46:42.772Z,21.67
2018-02-11T22:49:10.337Z,21.60
2018-02-11T22:51:37.900Z,22.43
2018-02-11T22:54:05.485Z,22.77
2018-02-11T22:56:33.850Z,23.93
2018-02-11T22:59:02.416Z,26.00
2018-02-11T23:01:29.984Z,23.13
2018-02-11T23:03:58.322Z,26.73
2018-02-11T23:06:26.161Z,23.13
2018-02-11T23:08:53.807Z,25.30
2018-02-11T23:11:22.126Z,28.60
2018-02-11T23:13:50.127Z,28.33
2018-02-11T23:16:18.506Z,26.30
2018-02-11T23:18:46.063Z,27.00
2018-02-11T23:21:13.691Z,24.17
2018-02-11T23:23:41.253Z,25.87
2018-02-11T23:26:08.808Z,26.27
2018-02-11T23:28:36.410Z,27.13
2018-02-11T23:31:04.739Z,35.30
2018-02-11T23:33:32.371Z,30.43
2018-02-11T23:35:59.935Z,35.10
2018-02-11T23:38:28.657Z,35.60
2018-02-11T23:40:56.240Z,36.07
2018-02-11T23:43:23.807Z,35.40
2018-02-11T23:45:51.408Z,40.67
2018-02-11T23:48:19.050Z,40.13
2018-02-11T23:50:46.610Z,42.77
2018-02-11T23:53:14.445Z,45.00
2018-02-11T23:55:42.020Z,43.07
2018-02-11T23:58:10.357Z,38.87
